Aviva — 5VCM5 — position and weather

sailwx.info

Track history (hours):
 
Tides and Currents Weather Stations Pressure Air Temp Water Temp Dewpoint Dewpoint Depression Visibility Wind Speed Wind Dir Waves Ship Positions

Aviva

Last reported at 2018-Aug-17 08:18 UTC. Time now 2018-Aug-21 04:18 UTC.
Position N 38°14' W 000°16'.

Length 142 m; draft 5.7 m.

Type: Ship. MMSI: 671432000.

Date/timePositionNaut miles runAvg speedWind from/ knotsBaromVisibWave heightAir tempDewpointWater temp
2018-Aug-17 08:18N 38°14' W 000°16'3 7.6
2018-Aug-17 07:52N 38°13' W 000°12'11 7.5
2018-Aug-17 06:25N 38°08' E 000°00'  
2018-Aug-13 19:36N 36°46' E 003°04'0 0.0
2018-Aug-13 19:30N 36°46' E 003°04'0 0.0
2018-Aug-12 22:00N 36°46' E 003°04'0 0.0
2018-Aug-12 17:00N 36°46' E 003°04'  
2018-Aug-09 23:07N 36°46' E 003°04'1 4.4
2018-Aug-09 22:55N 36°46' E 003°05'1 2.2
2018-Aug-09 22:30N 36°46' E 003°06'1 0.7
2018-Aug-09 20:26N 36°48' E 003°06'2 4.2
2018-Aug-09 19:55N 36°50' E 003°06'17 8.2
2018-Aug-09 17:52N 36°58' E 002°47'3 8.1
2018-Aug-09 17:27N 36°59' E 002°43'24 7.7
2018-Aug-09 14:19N 37°11' E 002°17'3 7.3
2018-Aug-09 13:53N 37°12' E 002°13'9 7.4
2018-Aug-09 12:40N 37°16' E 002°03'1 7.4
2018-Aug-09 12:29N 37°17' E 002°02'17 7.4
2018-Aug-09 10:09N 37°25' E 001°42'1 7.4
2018-Aug-09 09:57N 37°26' E 001°41'9 7.1
2018-Aug-09 08:43N 37°30' E 001°31'3 7.2
2018-Aug-09 08:15N 37°31' E 001°27'2 7.1
2018-Aug-09 08:00N 37°32' E 001°25'5 7.1
2018-Aug-09 07:22N 37°34' E 001°20'16 7.2
2018-Aug-09 05:09N 37°42' E 001°02'6 7.4
2018-Aug-09 04:19N 37°45' E 000°55'2 7.5
2018-Aug-09 04:00N 37°46' E 000°53'4 7.6
2018-Aug-09 03:30N 37°47' E 000°48'4 7.7
2018-Aug-09 03:00N 37°49' E 000°44'4 7.7
2018-Aug-09 02:30N 37°51' E 000°40'4 7.7
2018-Aug-09 02:00N 37°53' E 000°35'4 7.9
2018-Aug-09 01:30N 37°55' E 000°31'4 8.0
2018-Aug-09 01:00N 37°56' E 000°26'4 8.1
2018-Aug-09 00:30N 37°58' E 000°22'30 7.7
2018-Aug-08 20:41N 38°12' W 000°12'  
Track history (hours):
 
Tides and Currents Weather Stations Pressure Air Temp Water Temp Dewpoint Dewpoint Depression Visibility Wind Speed Wind Dir Waves Ship Positions

Aviva

Last reported at 2018-Aug-17 08:18 UTC. Time now 2018-Aug-21 04:18 UTC.
Position N 38°14' W 000°16'.

Length 142 m; draft 5.7 m.

Type: Ship. MMSI: 671432000.

Date/timePositionNaut miles runAvg speedWind from/ knotsBaromVisibWave heightAir tempDewpointWater temp
2018-Aug-17 08:18N 38°14' W 000°16'3 7.6
2018-Aug-17 07:52N 38°13' W 000°12'11 7.5
2018-Aug-17 06:25N 38°08' E 000°00'  
2018-Aug-13 19:36N 36°46' E 003°04'0 0.0
2018-Aug-13 19:30N 36°46' E 003°04'0 0.0
2018-Aug-12 22:00N 36°46' E 003°04'0 0.0
2018-Aug-12 17:00N 36°46' E 003°04'  
2018-Aug-09 23:07N 36°46' E 003°04'1 4.4
2018-Aug-09 22:55N 36°46' E 003°05'1 2.2
2018-Aug-09 22:30N 36°46' E 003°06'1 0.7
2018-Aug-09 20:26N 36°48' E 003°06'2 4.2
2018-Aug-09 19:55N 36°50' E 003°06'17 8.2
2018-Aug-09 17:52N 36°58' E 002°47'3 8.1
2018-Aug-09 17:27N 36°59' E 002°43'24 7.7
2018-Aug-09 14:19N 37°11' E 002°17'3 7.3
2018-Aug-09 13:53N 37°12' E 002°13'9 7.4
2018-Aug-09 12:40N 37°16' E 002°03'1 7.4
2018-Aug-09 12:29N 37°17' E 002°02'17 7.4
2018-Aug-09 10:09N 37°25' E 001°42'1 7.4
2018-Aug-09 09:57N 37°26' E 001°41'9 7.1
2018-Aug-09 08:43N 37°30' E 001°31'3 7.2
2018-Aug-09 08:15N 37°31' E 001°27'2 7.1
2018-Aug-09 08:00N 37°32' E 001°25'5 7.1
2018-Aug-09 07:22N 37°34' E 001°20'16 7.2
2018-Aug-09 05:09N 37°42' E 001°02'6 7.4
2018-Aug-09 04:19N 37°45' E 000°55'2 7.5
2018-Aug-09 04:00N 37°46' E 000°53'4 7.6
2018-Aug-09 03:30N 37°47' E 000°48'4 7.7
2018-Aug-09 03:00N 37°49' E 000°44'4 7.7
2018-Aug-09 02:30N 37°51' E 000°40'4 7.7
2018-Aug-09 02:00N 37°53' E 000°35'4 7.9
2018-Aug-09 01:30N 37°55' E 000°31'4 8.0
2018-Aug-09 01:00N 37°56' E 000°26'4 8.1
2018-Aug-09 00:30N 37°58' E 000°22'30 7.7
2018-Aug-08 20:41N 38°12' W 000°12'  

Dump ship's entire track history